createdAt,value
2022-12-26T00:01:12.383Z,20.00
2022-12-26T00:03:40.305Z,22.90
2022-12-26T00:06:16.817Z,22.50
2022-12-26T00:08:46.590Z,18.30
2022-12-26T00:11:14.895Z,19.30
2022-12-26T00:13:43.298Z,22.30
2022-12-26T00:16:16.581Z,21.20
2022-12-26T00:18:44.899Z,21.20
2022-12-26T00:21:14.276Z,19.10
2022-12-26T00:23:43.246Z,20.90
2022-12-26T00:26:16.431Z,20.80
2022-12-26T00:28:45.092Z,20.00
2022-12-26T00:31:18.926Z,22.20
2022-12-26T00:33:46.923Z,21.20
2022-12-26T00:36:17.354Z,21.60
2022-12-26T00:38:45.616Z,20.50
2022-12-26T00:41:14.452Z,22.90
2022-12-26T00:43:42.260Z,24.90
2022-12-26T00:46:10.673Z,17.40
2022-12-26T00:48:38.461Z,20.90
2022-12-26T00:51:06.681Z,17.40
2022-12-26T00:53:34.991Z,20.90
2022-12-26T00:56:02.887Z,22.90
2022-12-26T00:58:30.815Z,20.30
2022-12-26T01:01:31.104Z,23.80
2022-12-26T01:03:59.781Z,23.70
2022-12-26T01:06:27.767Z,17.80
2022-12-26T01:08:55.534Z,20.60
2022-12-26T01:11:41.535Z,19.00
2022-12-26T01:14:17.534Z,24.70
2022-12-26T01:16:46.602Z,20.80
2022-12-26T01:19:15.085Z,18.70
2022-12-26T01:21:45.907Z,20.10
2022-12-26T01:24:14.020Z,18.80
2022-12-26T01:26:41.929Z,19.90
2022-12-26T01:29:09.975Z,21.30
2022-12-26T01:31:37.935Z,23.00
2022-12-26T01:34:05.762Z,21.10
2022-12-26T01:36:33.581Z,20.70
2022-12-26T01:39:01.313Z,19.60
2022-12-26T01:41:30.360Z,18.20
2022-12-26T01:44:04.603Z,21.40
2022-12-26T01:46:42.227Z,20.10
2022-12-26T01:49:26.534Z,19.80
2022-12-26T01:51:57.934Z,19.20
2022-12-26T01:54:37.930Z,17.60
2022-12-26T01:57:19.938Z,21.30
2022-12-26T01:59:48.483Z,17.90
2022-12-26T02:02:17.260Z,18.80
2022-12-26T02:05:07.810Z,19.70
2022-12-26T02:07:38.758Z,20.10
2022-12-26T02:10:11.350Z,16.90
2022-12-26T02:12:39.552Z,18.80
2022-12-26T02:15:11.451Z,17.80
2022-12-26T02:17:40.066Z,20.80
2022-12-26T02:20:17.747Z,20.10
2022-12-26T02:23:19.320Z,18.50
2022-12-26T02:25:53.396Z,18.70
2022-12-26T02:28:53.777Z,19.00
2022-12-26T02:31:38.908Z,18.30
2022-12-26T02:34:21.140Z,19.00
2022-12-26T02:37:27.075Z,16.60
2022-12-26T02:40:13.379Z,15.70
2022-12-26T02:42:51.984Z,16.00
2022-12-26T02:45:44.580Z,17.20
2022-12-26T02:51:17.428Z,18.00
2022-12-26T02:54:50.781Z,18.90
2022-12-26T03:00:25.894Z,22.30
2022-12-26T03:03:16.346Z,19.10
2022-12-26T03:06:07.811Z,16.30
2022-12-26T03:09:23.872Z,19.10
2022-12-26T03:12:15.701Z,16.30
2022-12-26T03:14:50.941Z,16.00
2022-12-26T03:17:29.074Z,19.80
2022-12-26T03:20:01.769Z,14.90
2022-12-26T03:22:38.176Z,15.70
2022-12-26T03:25:31.087Z,18.10
2022-12-26T03:27:59.031Z,15.00
2022-12-26T03:30:45.871Z,15.40
2022-12-26T03:33:32.462Z,16.40
2022-12-26T03:36:00.800Z,16.90
2022-12-26T03:38:35.360Z,16.50
2022-12-26T03:41:36.010Z,16.10
2022-12-26T03:44:55.892Z,16.30
2022-12-26T03:47:59.089Z,11.10
2022-12-26T03:50:55.439Z,12.90
2022-12-26T03:53:48.612Z,14.00
2022-12-26T03:56:40.203Z,15.80
2022-12-26T03:59:30.717Z,12.80
2022-12-26T04:02:22.319Z,11.10
2022-12-26T04:05:11.113Z,10.20
2022-12-26T04:08:03.988Z,13.20
2022-12-26T04:10:57.792Z,12.20
2022-12-26T04:13:49.473Z,16.80
2022-12-26T04:16:46.485Z,12.60
2022-12-26T04:19:32.450Z,13.90
2022-12-26T04:22:57.628Z,14.40
2022-12-26T04:26:13.777Z,12.20
2022-12-26T04:29:00.745Z,17.70
2022-12-26T04:31:51.917Z,11.50
2022-12-26T04:34:49.121Z,13.40
2022-12-26T04:37:44.280Z,10.50
2022-12-26T04:40:37.992Z,12.90
2022-12-26T04:43:50.008Z,13.30
2022-12-26T04:46:14.630Z,12.10
2022-12-26T04:49:05.290Z,13.60
2022-12-26T04:51:34.732Z,11.50
2022-12-26T04:54:02.928Z,11.70
2022-12-26T04:56:30.893Z,10.00
2022-12-26T04:59:00.032Z,9.90
2022-12-26T05:01:49.826Z,11.80
2022-12-26T05:04:38.461Z,10.30
2022-12-26T05:07:33.325Z,9.60
2022-12-26T05:10:01.426Z,10.60
2022-12-26T05:12:29.287Z,11.00
2022-12-26T05:14:57.943Z,10.80
2022-12-26T05:17:45.525Z,11.80
2022-12-26T05:20:32.080Z,12.50
2022-12-26T05:23:19.638Z,10.60
2022-12-26T05:26:06.959Z,10.50
2022-12-26T05:28:44.021Z,9.20
2022-12-26T05:31:14.676Z,12.50
2022-12-26T05:34:02.272Z,11.00
2022-12-26T05:36:34.026Z,10.90
2022-12-26T05:39:04.039Z,8.40
2022-12-26T05:41:32.051Z,9.80
2022-12-26T05:43:59.800Z,9.30
2022-12-26T05:46:28.134Z,10.60
2022-12-26T05:48:55.939Z,11.30
2022-12-26T05:51:23.743Z,11.70
2022-12-26T05:53:51.932Z,10.30
2022-12-26T05:56:20.309Z,10.50
2022-12-26T05:58:54.130Z,9.00
2022-12-26T06:01:22.057Z,9.90
2022-12-26T06:03:52.504Z,10.10
2022-12-26T06:06:21.662Z,8.90
2022-12-26T06:08:50.740Z,10.20
2022-12-26T06:11:19.593Z,8.90
2022-12-26T06:13:47.785Z,10.30
2022-12-26T06:16:17.411Z,8.50
2022-12-26T06:18:45.532Z,6.90
2022-12-26T06:21:16.397Z,9.80
2022-12-26T06:23:44.659Z,10.30
2022-12-26T06:26:12.902Z,8.90
2022-12-26T06:28:41.749Z,6.50
2022-12-26T06:31:13.067Z,7.80
2022-12-26T06:33:41.780Z,8.70
2022-12-26T06:36:14.404Z,7.00
2022-12-26T06:38:42.951Z,6.70
2022-12-26T06:41:13.652Z,7.40
2022-12-26T06:43:42.330Z,9.80
2022-12-26T06:46:13.268Z,7.20
2022-12-26T06:48:41.276Z,7.00
2022-12-26T06:51:17.820Z,7.70
2022-12-26T06:53:45.773Z,10.40
2022-12-26T06:56:16.493Z,7.40
2022-12-26T06:58:44.576Z,8.30
2022-12-26T07:01:15.319Z,8.50
2022-12-26T07:03:50.864Z,8.50
2022-12-26T07:06:28.033Z,11.10
2022-12-26T07:09:04.919Z,8.00
2022-12-26T07:11:35.219Z,12.40
2022-12-26T07:14:03.510Z,10.30
2022-12-26T07:16:31.777Z,10.50
2022-12-26T07:19:00.455Z,9.30
2022-12-26T07:21:30.508Z,9.10
2022-12-26T07:24:01.331Z,13.30
2022-12-26T07:26:29.148Z,10.50
2022-12-26T07:28:58.284Z,10.70
2022-12-26T07:31:28.609Z,11.50
2022-12-26T07:33:57.309Z,9.50
2022-12-26T07:36:25.300Z,10.70
2022-12-26T07:38:53.252Z,10.20
2022-12-26T07:41:40.165Z,9.90
2022-12-26T07:44:09.528Z,10.10
2022-12-26T07:46:37.533Z,8.60
2022-12-26T07:49:05.435Z,8.80
2022-12-26T07:51:33.533Z,9.20
2022-12-26T07:54:05.511Z,9.90
2022-12-26T07:56:37.261Z,12.60
2022-12-26T07:59:05.076Z,10.90
2022-12-26T08:01:33.230Z,9.60
2022-12-26T08:04:01.218Z,10.40
2022-12-26T08:06:29.268Z,12.20
2022-12-26T08:08:56.998Z,12.10
2022-12-26T08:11:25.096Z,10.50
2022-12-26T08:13:52.947Z,9.50
2022-12-26T08:16:21.413Z,10.90
2022-12-26T08:18:49.372Z,9.10
2022-12-26T08:21:17.193Z,9.40
2022-12-26T08:23:46.380Z,9.30
2022-12-26T08:26:20.709Z,10.30
2022-12-26T08:28:49.784Z,11.00
2022-12-26T08:31:19.209Z,11.00
2022-12-26T08:33:47.612Z,11.80
2022-12-26T08:36:19.524Z,8.70
2022-12-26T08:38:47.300Z,11.70
2022-12-26T08:41:17.451Z,8.70
2022-12-26T08:44:25.597Z,8.80
2022-12-26T08:46:40.577Z,8.40
2022-12-26T08:49:08.455Z,10.20
2022-12-26T08:51:36.500Z,8.00
2022-12-26T08:54:04.591Z,6.90
2022-12-26T08:56:32.520Z,8.50
2022-12-26T08:59:00.238Z,8.50
2022-12-26T09:01:30.835Z,7.70
2022-12-26T09:04:00.766Z,7.30
2022-12-26T09:06:31.538Z,8.40
2022-12-26T09:09:00.155Z,8.20
2022-12-26T09:11:28.876Z,8.10
2022-12-26T09:14:00.218Z,8.20
2022-12-26T09:16:39.942Z,8.10
2022-12-26T09:19:12.939Z,8.80
2022-12-26T09:21:43.547Z,9.60
2022-12-26T09:24:14.100Z,8.60
2022-12-26T09:26:42.781Z,8.60
2022-12-26T09:29:14.103Z,8.00
2022-12-26T09:31:42.212Z,8.20
2022-12-26T09:34:09.981Z,8.30
2022-12-26T09:36:38.944Z,7.60
2022-12-26T09:39:08.017Z,9.70
2022-12-26T09:41:46.461Z,8.60
2022-12-26T09:44:30.389Z,6.90
2022-12-26T09:47:04.429Z,8.60
2022-12-26T09:49:47.912Z,6.60
2022-12-26T10:13:50.528Z,6.90
2022-12-26T10:17:03.546Z,8.90
2022-12-26T10:19:53.173Z,8.10
2022-12-26T10:22:35.197Z,8.30
2022-12-26T10:27:38.355Z,7.60
2022-12-26T10:30:09.090Z,8.20
2022-12-26T10:32:41.514Z,6.50
2022-12-26T10:35:37.803Z,8.00
2022-12-26T10:38:27.925Z,6.30
2022-12-26T10:40:59.089Z,7.40
2022-12-26T10:43:31.259Z,6.80
2022-12-26T10:46:17.735Z,7.90
2022-12-26T10:48:46.994Z,7.50
2022-12-26T10:51:15.506Z,5.60
2022-12-26T10:53:48.798Z,8.70
2022-12-26T10:56:18.505Z,7.40
2022-12-26T10:58:52.508Z,8.10
2022-12-26T11:01:29.572Z,8.10
2022-12-26T11:04:00.415Z,8.10
2022-12-26T11:06:33.999Z,12.30
2022-12-26T11:09:01.976Z,8.00
2022-12-26T11:11:46.598Z,6.40
2022-12-26T11:14:37.855Z,7.50
2022-12-26T11:17:13.053Z,7.80
2022-12-26T11:19:47.299Z,6.70
2022-12-26T11:22:28.861Z,6.00
2022-12-26T11:25:11.957Z,8.50
2022-12-26T11:27:45.843Z,6.30
2022-12-26T11:30:13.732Z,6.00
2022-12-26T11:32:43.568Z,5.60
2022-12-26T11:35:25.570Z,6.70
2022-12-26T11:37:58.105Z,7.40
2022-12-26T11:40:33.688Z,8.50
2022-12-26T11:43:03.851Z,5.90
2022-12-26T11:45:38.572Z,6.00
2022-12-26T11:48:22.404Z,4.10
2022-12-26T11:50:50.615Z,3.40
2022-12-26T11:53:20.899Z,3.60
2022-12-26T11:56:00.953Z,2.20
2022-12-26T11:58:30.859Z,3.20
2022-12-26T12:01:00.111Z,1.80
2022-12-26T12:03:50.238Z,4.90
2022-12-26T12:06:40.130Z,3.90
2022-12-26T12:09:20.118Z,3.10
2022-12-26T12:12:14.241Z,2.40
2022-12-26T12:15:04.384Z,3.10
2022-12-26T12:17:51.984Z,3.70
2022-12-26T12:20:52.037Z,3.70
2022-12-26T12:23:44.392Z,3.40
2022-12-26T12:26:15.493Z,4.80
2022-12-26T12:29:08.159Z,3.20
2022-12-26T12:32:24.411Z,4.90
2022-12-26T12:35:07.198Z,6.50
2022-12-26T12:37:35.175Z,4.00
2022-12-26T12:40:21.310Z,2.50
2022-12-26T12:43:14.533Z,2.90
2022-12-26T12:46:08.752Z,2.80
2022-12-26T12:48:57.148Z,4.10
2022-12-26T12:51:28.245Z,4.00
2022-12-26T12:54:02.181Z,2.50
2022-12-26T12:56:42.805Z,2.90
2022-12-26T12:59:26.130Z,4.10
2022-12-26T13:01:58.054Z,3.10
2022-12-26T13:04:34.034Z,3.20
2022-12-26T13:07:09.719Z,1.70
2022-12-26T13:09:51.564Z,2.60
2022-12-26T13:12:25.821Z,2.20
2022-12-26T13:15:29.166Z,2.80
2022-12-26T13:18:12.330Z,3.30
2022-12-26T13:20:46.728Z,3.50
2022-12-26T13:23:59.179Z,3.10
2022-12-26T13:26:31.313Z,4.30
2022-12-26T13:29:04.332Z,3.60
2022-12-26T13:31:33.941Z,5.60
2022-12-26T13:34:02.527Z,3.90
2022-12-26T13:36:59.586Z,4.00
2022-12-26T13:39:27.527Z,2.70
2022-12-26T13:42:19.017Z,3.40
2022-12-26T13:44:53.028Z,7.10
2022-12-26T13:47:51.379Z,3.40
2022-12-26T13:50:53.480Z,2.40
2022-12-26T13:53:40.670Z,3.80
2022-12-26T13:56:17.724Z,3.50
2022-12-26T13:59:02.507Z,5.30
2022-12-26T14:01:43.995Z,4.30
2022-12-26T14:04:18.440Z,4.00
2022-12-26T14:07:02.873Z,5.50
2022-12-26T14:09:50.860Z,5.30
2022-12-26T14:12:28.828Z,3.50
2022-12-26T14:15:09.255Z,5.20
2022-12-26T14:17:42.802Z,6.80
2022-12-26T14:20:37.335Z,9.10
2022-12-26T14:23:48.103Z,5.70
2022-12-26T14:26:48.488Z,7.50
2022-12-26T14:29:22.149Z,8.50
2022-12-26T14:32:20.658Z,5.80
2022-12-26T14:35:15.397Z,5.60
2022-12-26T14:37:56.198Z,9.20
2022-12-26T14:40:35.816Z,7.10
2022-12-26T14:43:31.818Z,8.10
2022-12-26T14:46:00.725Z,7.70
2022-12-26T14:48:28.523Z,6.20
2022-12-26T14:51:19.104Z,6.30
2022-12-26T14:54:13.002Z,4.90
2022-12-26T14:56:40.919Z,6.90
2022-12-26T14:59:28.067Z,5.70
2022-12-26T15:02:17.341Z,5.80
2022-12-26T15:05:01.817Z,4.40
2022-12-26T15:08:14.492Z,6.30
2022-12-26T15:11:10.271Z,6.60
2022-12-26T15:13:56.837Z,6.90
2022-12-26T15:16:39.180Z,9.20
2022-12-26T15:19:26.335Z,8.90
2022-12-26T15:22:05.168Z,7.20
2022-12-26T15:25:20.293Z,10.10
2022-12-26T15:28:00.877Z,9.20
2022-12-26T15:30:57.075Z,8.80
2022-12-26T15:33:33.890Z,7.60
2022-12-26T15:36:06.933Z,6.70
2022-12-26T15:38:56.554Z,9.20
2022-12-26T15:41:30.641Z,6.60
2022-12-26T15:44:08.844Z,6.60
2022-12-26T15:46:43.574Z,7.50
2022-12-26T15:49:39.645Z,9.20
2022-12-26T15:52:26.063Z,11.80
2022-12-26T15:55:16.663Z,9.30
2022-12-26T15:57:58.310Z,9.50
2022-12-26T16:00:28.728Z,8.50
2022-12-26T16:03:14.900Z,6.60
2022-12-26T16:05:51.547Z,9.50
2022-12-26T16:08:43.354Z,6.10
2022-12-26T16:11:27.450Z,4.20
2022-12-26T16:14:03.432Z,5.50
2022-12-26T16:16:37.300Z,2.40
2022-12-26T16:19:16.168Z,3.50
2022-12-26T16:22:05.475Z,2.30
2022-12-26T16:24:34.706Z,2.50
2022-12-26T16:27:04.865Z,4.30
2022-12-26T16:29:33.028Z,3.80
2022-12-26T16:32:06.168Z,2.70
2022-12-26T16:34:36.203Z,1.90
2022-12-26T16:37:04.437Z,2.50
2022-12-26T16:39:32.222Z,2.60
2022-12-26T16:42:07.726Z,3.70
2022-12-26T16:44:41.111Z,3.60
2022-12-26T16:47:11.985Z,7.30
2022-12-26T16:49:41.849Z,6.50
2022-12-26T16:52:29.551Z,9.10
2022-12-26T16:54:57.644Z,6.20
2022-12-26T16:57:26.275Z,4.00
2022-12-26T16:59:57.786Z,3.40
2022-12-26T17:02:31.571Z,5.30
2022-12-26T17:05:01.414Z,6.40
2022-12-26T17:07:29.763Z,6.20
2022-12-26T17:10:00.165Z,4.80
2022-12-26T17:12:32.599Z,5.40
2022-12-26T17:15:01.975Z,3.60
2022-12-26T17:17:33.559Z,4.00
2022-12-26T17:20:23.326Z,1.80
2022-12-26T17:22:53.401Z,1.80
2022-12-26T17:25:26.544Z,2.30
2022-12-26T17:28:10.963Z,4.30
2022-12-26T17:30:46.268Z,3.30
2022-12-26T17:33:21.648Z,5.40
2022-12-26T17:38:40.716Z,3.40
2022-12-26T17:41:09.801Z,4.70
2022-12-26T17:43:39.306Z,5.50
2022-12-26T17:46:10.113Z,3.80
2022-12-26T17:48:37.918Z,4.70
2022-12-26T17:51:07.749Z,5.60
2022-12-26T17:53:38.032Z,4.70
2022-12-26T17:56:23.396Z,3.80
2022-12-26T17:58:51.288Z,5.00
2022-12-26T18:01:21.893Z,4.20
2022-12-26T18:03:52.130Z,5.60
2022-12-26T18:06:21.941Z,6.00
2022-12-26T18:08:49.753Z,5.10
2022-12-26T18:11:17.503Z,5.30
2022-12-26T18:13:45.375Z,5.70
2022-12-26T18:16:17.898Z,6.60
2022-12-26T18:18:47.212Z,7.60
2022-12-26T18:21:15.975Z,7.50
2022-12-26T18:23:44.287Z,8.80
2022-12-26T18:26:22.941Z,7.50
2022-12-26T18:28:51.988Z,7.40
2022-12-26T18:31:20.546Z,7.50
2022-12-26T18:33:48.404Z,11.50
2022-12-26T18:36:17.090Z,9.90
2022-12-26T18:38:45.460Z,8.30
2022-12-26T18:41:17.532Z,9.40
2022-12-26T18:43:45.859Z,8.90
2022-12-26T18:46:19.281Z,8.30
2022-12-26T18:48:47.974Z,10.80
2022-12-26T18:51:15.981Z,11.10
2022-12-26T18:53:43.787Z,10.00
2022-12-26T18:56:18.438Z,13.10
2022-12-26T18:58:52.421Z,11.40
2022-12-26T19:01:23.915Z,13.70
2022-12-26T19:03:53.698Z,14.50
2022-12-26T19:06:24.471Z,19.40
2022-12-26T19:08:52.381Z,12.60
2022-12-26T19:11:20.137Z,10.30
2022-12-26T19:13:48.192Z,9.90
2022-12-26T19:16:16.246Z,8.40
2022-12-26T19:18:44.066Z,8.90
2022-12-26T19:21:13.199Z,9.60
2022-12-26T19:23:41.264Z,8.70
2022-12-26T19:26:10.735Z,9.70
2022-12-26T19:28:39.171Z,7.90
2022-12-26T19:31:08.644Z,8.70
2022-12-26T19:33:36.833Z,10.40
2022-12-26T19:36:05.466Z,8.70
2022-12-26T19:38:33.583Z,11.60
2022-12-26T19:41:05.893Z,11.40
2022-12-26T19:43:33.889Z,8.50
2022-12-26T19:46:04.480Z,8.00
2022-12-26T19:48:33.843Z,7.60
2022-12-26T19:51:07.436Z,8.30
2022-12-26T19:53:36.627Z,9.00
2022-12-26T19:56:16.557Z,8.70
2022-12-26T19:58:51.880Z,10.20
2022-12-26T20:01:29.557Z,10.90
2022-12-26T20:03:59.498Z,9.50
2022-12-26T20:06:29.167Z,9.60
2022-12-26T20:08:59.300Z,10.20
2022-12-26T20:11:33.922Z,10.30
2022-12-26T20:14:03.657Z,14.20
2022-12-26T20:17:04.293Z,9.10
2022-12-26T20:19:20.844Z,10.80
2022-12-26T20:21:49.017Z,8.80
2022-12-26T20:24:18.689Z,8.00
2022-12-26T20:26:49.513Z,11.30
2022-12-26T20:29:17.459Z,9.50
2022-12-26T20:31:45.634Z,8.50
2022-12-26T20:34:13.826Z,5.60
2022-12-26T20:36:41.988Z,6.30
2022-12-26T20:39:15.070Z,7.50
2022-12-26T20:41:45.047Z,9.30
2022-12-26T20:44:14.255Z,7.80
2022-12-26T20:46:43.209Z,9.90
2022-12-26T20:49:11.001Z,7.60
2022-12-26T20:51:40.607Z,9.30
2022-12-26T20:54:10.030Z,7.80
2022-12-26T20:56:38.650Z,8.30
2022-12-26T20:59:07.041Z,7.70
2022-12-26T21:01:35.580Z,8.70
2022-12-26T21:04:04.025Z,7.70
2022-12-26T21:06:34.888Z,11.10
2022-12-26T21:09:04.048Z,9.10
2022-12-26T21:11:38.080Z,9.50
2022-12-26T21:14:10.531Z,9.40
2022-12-26T21:16:47.853Z,8.70
2022-12-26T21:19:17.210Z,8.40
2022-12-26T21:21:46.963Z,8.30
2022-12-26T21:24:23.614Z,8.00
2022-12-26T21:26:51.495Z,8.80
2022-12-26T21:29:30.720Z,10.20
2022-12-26T21:31:59.214Z,14.10
2022-12-26T21:34:29.564Z,14.00
2022-12-26T21:37:15.983Z,13.70
2022-12-26T21:39:44.541Z,11.50
2022-12-26T21:42:12.313Z,13.10
2022-12-26T21:44:40.191Z,10.50
2022-12-26T21:47:08.489Z,12.80
2022-12-26T21:49:37.002Z,19.80
2022-12-26T21:52:06.180Z,21.90
2022-12-26T21:54:52.522Z,17.20
2022-12-26T21:57:21.401Z,15.70
2022-12-26T21:59:59.474Z,12.10
2022-12-26T22:02:54.635Z,9.10
2022-12-26T22:05:28.392Z,12.30
2022-12-26T22:07:59.090Z,9.10
2022-12-26T22:10:49.100Z,9.50
2022-12-26T22:13:18.377Z,8.00
2022-12-26T22:16:03.863Z,9.00
2022-12-26T22:18:33.227Z,8.20
2022-12-26T22:21:09.774Z,8.90
2022-12-26T22:23:38.965Z,9.00
2022-12-26T22:26:08.378Z,11.60
2022-12-26T22:28:36.845Z,9.90
2022-12-26T22:31:05.065Z,10.10
2022-12-26T22:33:33.292Z,10.40
2022-12-26T22:36:08.743Z,8.00
2022-12-26T22:38:37.901Z,10.90
2022-12-26T22:41:05.902Z,10.00
2022-12-26T22:43:33.650Z,8.20
2022-12-26T22:46:01.446Z,6.90
2022-12-26T22:48:29.740Z,7.20
2022-12-26T22:50:57.910Z,4.60
2022-12-26T22:53:29.103Z,3.50
2022-12-26T22:56:05.708Z,1.40
2022-12-26T22:58:34.088Z,1.50
2022-12-26T23:01:01.826Z,1.80
2022-12-26T23:03:29.680Z,1.00
2022-12-26T23:05:57.857Z,1.40
2022-12-26T23:08:27.526Z,1.50
2022-12-26T23:10:57.760Z,1.30
2022-12-26T23:13:27.731Z,1.30
2022-12-26T23:16:04.652Z,2.30
2022-12-26T23:18:55.296Z,1.10
2022-12-26T23:21:42.416Z,1.60
2022-12-26T23:24:15.231Z,2.00
2022-12-26T23:26:45.638Z,3.30
2022-12-26T23:29:33.726Z,1.60
2022-12-26T23:32:01.866Z,0.90
2022-12-26T23:34:29.820Z,2.10
2022-12-26T23:36:58.553Z,2.20
2022-12-26T23:39:26.436Z,0.60
2022-12-26T23:41:54.351Z,1.60
2022-12-26T23:44:22.315Z,1.10
2022-12-26T23:46:50.572Z,2.50
2022-12-26T23:49:18.403Z,1.00
2022-12-26T23:51:46.235Z,4.90
2022-12-26T23:54:14.075Z,3.00
2022-12-26T23:56:41.823Z,2.50
2022-12-26T23:59:09.527Z,3.60
